sensor_id;sensor_type;location;lat;lon;timestamp;temperature;humidity
44215;DHT22;29884;47.450;19.124;2023-07-24T00:00:58;21.90;99.90
44215;DHT22;29884;47.450;19.124;2023-07-24T00:03:24;21.90;99.90
44215;DHT22;29884;47.450;19.124;2023-07-24T00:05:49;21.90;99.90
44215;DHT22;29884;47.450;19.124;2023-07-24T00:08:15;21.90;99.90
44215;DHT22;29884;47.450;19.124;2023-07-24T00:10:41;21.80;99.90
44215;DHT22;29884;47.450;19.124;2023-07-24T00:13:07;21.80;99.90
44215;DHT22;29884;47.450;19.124;2023-07-24T00:15:33;21.80;99.90
44215;DHT22;29884;47.450;19.124;2023-07-24T00:17:58;21.80;99.90
44215;DHT22;29884;47.450;19.124;2023-07-24T00:20:24;21.80;99.90
44215;DHT22;29884;47.450;19.124;2023-07-24T00:22:51;21.80;99.90
44215;DHT22;29884;47.450;19.124;2023-07-24T00:25:17;21.80;99.90
44215;DHT22;29884;47.450;19.124;2023-07-24T00:27:42;21.80;99.90
44215;DHT22;29884;47.450;19.124;2023-07-24T00:30:08;21.60;99.90
44215;DHT22;29884;47.450;19.124;2023-07-24T00:32:34;21.60;99.90
44215;DHT22;29884;47.450;19.124;2023-07-24T00:35:00;21.60;99.90
44215;DHT22;29884;47.450;19.124;2023-07-24T00:37:26;21.70;99.90
44215;DHT22;29884;47.450;19.124;2023-07-24T00:39:51;21.60;99.90
44215;DHT22;29884;47.450;19.124;2023-07-24T00:42:17;21.60;99.90
44215;DHT22;29884;47.450;19.124;2023-07-24T00:44:43;21.60;99.90
44215;DHT22;29884;47.450;19.124;2023-07-24T00:47:08;21.60;99.90
44215;DHT22;29884;47.450;19.124;2023-07-24T00:49:34;21.60;99.90
44215;DHT22;29884;47.450;19.124;2023-07-24T00:52:00;21.60;99.90
44215;DHT22;29884;47.450;19.124;2023-07-24T00:54:27;21.60;99.90
44215;DHT22;29884;47.450;19.124;2023-07-24T00:56:53;21.60;99.90
44215;DHT22;29884;47.450;19.124;2023-07-24T00:59:20;21.60;99.90
44215;DHT22;29884;47.450;19.124;2023-07-24T01:01:47;21.60;99.90
44215;DHT22;29884;47.450;19.124;2023-07-24T01:04:14;21.60;99.90
44215;DHT22;29884;47.450;19.124;2023-07-24T01:06:40;21.60;99.90
44215;DHT22;29884;47.450;19.124;2023-07-24T01:09:06;21.60;99.90
44215;DHT22;29884;47.450;19.124;2023-07-24T01:11:39;21.60;99.90
44215;DHT22;29884;47.450;19.124;2023-07-24T01:14:37;21.60;99.90
44215;DHT22;29884;47.450;19.124;2023-07-24T01:17:07;21.60;99.90
44215;DHT22;29884;47.450;19.124;2023-07-24T01:19:42;21.60;99.90
44215;DHT22;29884;47.450;19.124;2023-07-24T01:27:48;21.60;99.90
44215;DHT22;29884;47.450;19.124;2023-07-24T01:30:16;21.60;99.90
44215;DHT22;29884;47.450;19.124;2023-07-24T01:32:42;21.60;99.90
44215;DHT22;29884;47.450;19.124;2023-07-24T01:35:08;21.50;99.90
44215;DHT22;29884;47.450;19.124;2023-07-24T01:37:34;21.50;99.90
44215;DHT22;29884;47.450;19.124;2023-07-24T01:40:01;21.50;99.90
44215;DHT22;29884;47.450;19.124;2023-07-24T01:42:27;21.50;99.90
44215;DHT22;29884;47.450;19.124;2023-07-24T01:44:54;21.50;99.90
44215;DHT22;29884;47.450;19.124;2023-07-24T01:47:21;21.50;99.90
44215;DHT22;29884;47.450;19.124;2023-07-24T01:49:47;21.50;99.90
44215;DHT22;29884;47.450;19.124;2023-07-24T01:52:13;21.50;99.90
44215;DHT22;29884;47.450;19.124;2023-07-24T01:54:39;21.40;99.90
44215;DHT22;29884;47.450;19.124;2023-07-24T01:57:05;21.50;99.90
44215;DHT22;29884;47.450;19.124;2023-07-24T01:59:30;21.40;99.90
44215;DHT22;29884;47.450;19.124;2023-07-24T02:01:56;21.40;99.90
44215;DHT22;29884;47.450;19.124;2023-07-24T02:04:22;21.30;99.90
44215;DHT22;29884;47.450;19.124;2023-07-24T02:06:48;21.30;99.90
44215;DHT22;29884;47.450;19.124;2023-07-24T02:09:15;21.30;99.90
44215;DHT22;29884;47.450;19.124;2023-07-24T02:11:41;21.20;99.90
44215;DHT22;29884;47.450;19.124;2023-07-24T02:14:07;21.20;99.90
44215;DHT22;29884;47.450;19.124;2023-07-24T02:16:33;21.10;99.90
44215;DHT22;29884;47.450;19.124;2023-07-24T02:18:58;21.10;99.90
44215;DHT22;29884;47.450;19.124;2023-07-24T02:21:24;21.10;99.90
44215;DHT22;29884;47.450;19.124;2023-07-24T02:23:50;21.10;99.90
44215;DHT22;29884;47.450;19.124;2023-07-24T02:26:16;21.10;99.90
44215;DHT22;29884;47.450;19.124;2023-07-24T02:28:41;21.00;99.90
44215;DHT22;29884;47.450;19.124;2023-07-24T02:31:07;21.10;99.90
44215;DHT22;29884;47.450;19.124;2023-07-24T02:33:33;21.00;99.90
44215;DHT22;29884;47.450;19.124;2023-07-24T02:36:00;21.00;99.90
44215;DHT22;29884;47.450;19.124;2023-07-24T02:38:26;21.00;99.90
44215;DHT22;29884;47.450;19.124;2023-07-24T02:40:51;21.00;99.90
44215;DHT22;29884;47.450;19.124;2023-07-24T02:43:17;21.00;99.90
44215;DHT22;29884;47.450;19.124;2023-07-24T02:45:43;21.00;99.90
44215;DHT22;29884;47.450;19.124;2023-07-24T02:48:09;21.00;99.90
44215;DHT22;29884;47.450;19.124;2023-07-24T02:50:34;21.10;99.90
44215;DHT22;29884;47.450;19.124;2023-07-24T02:53:00;21.10;99.90
44215;DHT22;29884;47.450;19.124;2023-07-24T02:55:26;21.10;99.90
44215;DHT22;29884;47.450;19.124;2023-07-24T02:57:52;21.10;99.90
44215;DHT22;29884;47.450;19.124;2023-07-24T03:00:18;21.10;99.90
44215;DHT22;29884;47.450;19.124;2023-07-24T03:02:44;21.00;99.90
44215;DHT22;29884;47.450;19.124;2023-07-24T03:05:10;21.00;99.90
44215;DHT22;29884;47.450;19.124;2023-07-24T03:07:35;21.00;99.90
44215;DHT22;29884;47.450;19.124;2023-07-24T03:10:02;21.00;99.90
44215;DHT22;29884;47.450;19.124;2023-07-24T03:12:28;21.00;99.90
44215;DHT22;29884;47.450;19.124;2023-07-24T03:14:54;21.00;99.90
44215;DHT22;29884;47.450;19.124;2023-07-24T03:17:19;20.90;99.90
44215;DHT22;29884;47.450;19.124;2023-07-24T03:19:45;20.90;99.90
44215;DHT22;29884;47.450;19.124;2023-07-24T03:22:10;20.90;99.90
44215;DHT22;29884;47.450;19.124;2023-07-24T03:24:36;20.80;99.90
44215;DHT22;29884;47.450;19.124;2023-07-24T03:27:02;20.80;99.90
44215;DHT22;29884;47.450;19.124;2023-07-24T03:29:28;20.70;99.90
44215;DHT22;29884;47.450;19.124;2023-07-24T03:31:53;20.60;99.90
44215;DHT22;29884;47.450;19.124;2023-07-24T03:34:19;20.60;99.90
44215;DHT22;29884;47.450;19.124;2023-07-24T03:36:45;20.60;99.90
44215;DHT22;29884;47.450;19.124;2023-07-24T03:39:11;20.70;99.90
44215;DHT22;29884;47.450;19.124;2023-07-24T03:41:38;20.70;99.90
44215;DHT22;29884;47.450;19.124;2023-07-24T03:44:04;20.60;99.90
44215;DHT22;29884;47.450;19.124;2023-07-24T03:46:32;20.60;99.90
44215;DHT22;29884;47.450;19.124;2023-07-24T03:48:58;20.70;99.90
44215;DHT22;29884;47.450;19.124;2023-07-24T03:51:23;20.60;99.90
44215;DHT22;29884;47.450;19.124;2023-07-24T03:53:49;20.60;99.90
44215;DHT22;29884;47.450;19.124;2023-07-24T03:56:14;20.60;99.90
44215;DHT22;29884;47.450;19.124;2023-07-24T03:58:40;20.60;99.90
44215;DHT22;29884;47.450;19.124;2023-07-24T04:01:07;20.60;99.90
44215;DHT22;29884;47.450;19.124;2023-07-24T04:03:33;20.50;99.90
44215;DHT22;29884;47.450;19.124;2023-07-24T04:05:59;20.50;99.90
44215;DHT22;29884;47.450;19.124;2023-07-24T04:08:25;20.50;99.90
44215;DHT22;29884;47.450;19.124;2023-07-24T04:10:50;20.50;99.90
44215;DHT22;29884;47.450;19.124;2023-07-24T04:13:16;20.50;99.90
44215;DHT22;29884;47.450;19.124;2023-07-24T04:15:42;20.60;99.90
44215;DHT22;29884;47.450;19.124;2023-07-24T04:18:09;20.60;99.90
44215;DHT22;29884;47.450;19.124;2023-07-24T04:20:35;20.60;99.90
44215;DHT22;29884;47.450;19.124;2023-07-24T04:23:01;20.60;99.90
44215;DHT22;29884;47.450;19.124;2023-07-24T04:25:27;20.70;99.90
44215;DHT22;29884;47.450;19.124;2023-07-24T04:27:53;20.80;99.90
44215;DHT22;29884;47.450;19.124;2023-07-24T04:30:18;20.70;99.90
44215;DHT22;29884;47.450;19.124;2023-07-24T04:32:44;20.80;99.90
44215;DHT22;29884;47.450;19.124;2023-07-24T04:35:11;20.80;99.90
44215;DHT22;29884;47.450;19.124;2023-07-24T04:37:37;20.80;99.90
44215;DHT22;29884;47.450;19.124;2023-07-24T04:40:03;20.80;99.90
44215;DHT22;29884;47.450;19.124;2023-07-24T04:42:28;20.90;99.90
44215;DHT22;29884;47.450;19.124;2023-07-24T04:44:54;21.00;99.90
44215;DHT22;29884;47.450;19.124;2023-07-24T04:47:20;20.90;99.90
44215;DHT22;29884;47.450;19.124;2023-07-24T04:49:45;21.00;99.90
44215;DHT22;29884;47.450;19.124;2023-07-24T04:52:11;21.00;99.90
44215;DHT22;29884;47.450;19.124;2023-07-24T04:54:38;21.00;99.90
44215;DHT22;29884;47.450;19.124;2023-07-24T04:57:04;21.10;99.90
44215;DHT22;29884;47.450;19.124;2023-07-24T04:59:30;21.20;99.90
44215;DHT22;29884;47.450;19.124;2023-07-24T05:01:55;21.20;99.90
44215;DHT22;29884;47.450;19.124;2023-07-24T05:04:21;21.20;99.90
44215;DHT22;29884;47.450;19.124;2023-07-24T05:06:47;21.30;99.90
44215;DHT22;29884;47.450;19.124;2023-07-24T05:09:13;21.40;99.90
44215;DHT22;29884;47.450;19.124;2023-07-24T05:11:40;21.40;99.90
44215;DHT22;29884;47.450;19.124;2023-07-24T05:14:05;21.40;99.90
44215;DHT22;29884;47.450;19.124;2023-07-24T05:16:31;21.50;99.90
44215;DHT22;29884;47.450;19.124;2023-07-24T05:18:57;21.90;99.90
44215;DHT22;29884;47.450;19.124;2023-07-24T05:21:23;21.90;99.90
44215;DHT22;29884;47.450;19.124;2023-07-24T05:23:48;22.10;99.90
44215;DHT22;29884;47.450;19.124;2023-07-24T05:26:14;22.10;99.90
44215;DHT22;29884;47.450;19.124;2023-07-24T05:28:40;22.00;99.90
44215;DHT22;29884;47.450;19.124;2023-07-24T05:31:06;22.00;99.90
44215;DHT22;29884;47.450;19.124;2023-07-24T05:33:33;22.20;99.90
44215;DHT22;29884;47.450;19.124;2023-07-24T05:36:03;22.30;99.90
44215;DHT22;29884;47.450;19.124;2023-07-24T05:38:29;22.40;99.90
44215;DHT22;29884;47.450;19.124;2023-07-24T05:41:00;22.40;99.90
44215;DHT22;29884;47.450;19.124;2023-07-24T05:43:26;22.40;99.90
44215;DHT22;29884;47.450;19.124;2023-07-24T05:45:53;22.10;99.90
44215;DHT22;29884;47.450;19.124;2023-07-24T05:48:19;22.00;99.90
44215;DHT22;29884;47.450;19.124;2023-07-24T05:50:45;22.10;99.90
44215;DHT22;29884;47.450;19.124;2023-07-24T05:53:11;22.40;99.90
44215;DHT22;29884;47.450;19.124;2023-07-24T05:55:36;22.30;99.90
44215;DHT22;29884;47.450;19.124;2023-07-24T05:58:02;22.10;99.90
44215;DHT22;29884;47.450;19.124;2023-07-24T06:00:28;22.20;99.90
44215;DHT22;29884;47.450;19.124;2023-07-24T06:02:54;22.30;99.90
44215;DHT22;29884;47.450;19.124;2023-07-24T06:05:20;22.20;99.90
44215;DHT22;29884;47.450;19.124;2023-07-24T06:07:46;22.40;99.90
44215;DHT22;29884;47.450;19.124;2023-07-24T06:10:12;22.50;99.90
44215;DHT22;29884;47.450;19.124;2023-07-24T06:12:38;22.60;99.90
44215;DHT22;29884;47.450;19.124;2023-07-24T06:15:04;22.70;99.90
44215;DHT22;29884;47.450;19.124;2023-07-24T06:17:30;22.80;99.90
44215;DHT22;29884;47.450;19.124;2023-07-24T06:19:56;22.90;99.90
44215;DHT22;29884;47.450;19.124;2023-07-24T06:22:22;22.70;99.90
44215;DHT22;29884;47.450;19.124;2023-07-24T06:24:48;22.80;99.90
44215;DHT22;29884;47.450;19.124;2023-07-24T06:27:14;23.00;99.90
44215;DHT22;29884;47.450;19.124;2023-07-24T06:29:40;23.10;99.90
44215;DHT22;29884;47.450;19.124;2023-07-24T06:32:07;23.30;99.90
44215;DHT22;29884;47.450;19.124;2023-07-24T06:34:33;23.40;99.90
44215;DHT22;29884;47.450;19.124;2023-07-24T06:36:58;23.50;99.90
44215;DHT22;29884;47.450;19.124;2023-07-24T06:39:24;23.60;99.90
44215;DHT22;29884;47.450;19.124;2023-07-24T06:41:53;23.60;99.90
44215;DHT22;29884;47.450;19.124;2023-07-24T06:44:19;23.70;99.90
44215;DHT22;29884;47.450;19.124;2023-07-24T06:46:45;23.80;99.90
44215;DHT22;29884;47.450;19.124;2023-07-24T06:49:11;23.90;99.90
44215;DHT22;29884;47.450;19.124;2023-07-24T06:51:37;24.00;99.90
44215;DHT22;29884;47.450;19.124;2023-07-24T06:54:04;23.90;99.90
44215;DHT22;29884;47.450;19.124;2023-07-24T06:56:31;23.90;99.90
44215;DHT22;29884;47.450;19.124;2023-07-24T06:58:57;24.00;99.90
44215;DHT22;29884;47.450;19.124;2023-07-24T07:01:23;24.20;99.90
44215;DHT22;29884;47.450;19.124;2023-07-24T07:03:49;24.20;99.90
44215;DHT22;29884;47.450;19.124;2023-07-24T07:06:14;24.30;99.90
44215;DHT22;29884;47.450;19.124;2023-07-24T07:08:40;24.50;99.90
44215;DHT22;29884;47.450;19.124;2023-07-24T07:11:06;24.60;99.90
44215;DHT22;29884;47.450;19.124;2023-07-24T07:13:32;24.70;99.90
44215;DHT22;29884;47.450;19.124;2023-07-24T07:15:58;24.80;99.90
44215;DHT22;29884;47.450;19.124;2023-07-24T07:18:24;24.90;99.90
44215;DHT22;29884;47.450;19.124;2023-07-24T07:20:51;24.90;99.90
44215;DHT22;29884;47.450;19.124;2023-07-24T07:23:17;25.20;99.90
44215;DHT22;29884;47.450;19.124;2023-07-24T07:25:43;25.20;99.90
44215;DHT22;29884;47.450;19.124;2023-07-24T07:28:11;25.30;99.90
44215;DHT22;29884;47.450;19.124;2023-07-24T07:30:37;25.50;99.90
44215;DHT22;29884;47.450;19.124;2023-07-24T07:33:03;25.50;99.90
44215;DHT22;29884;47.450;19.124;2023-07-24T07:35:30;25.60;99.90
44215;DHT22;29884;47.450;19.124;2023-07-24T07:37:56;25.80;99.90
44215;DHT22;29884;47.450;19.124;2023-07-24T07:40:22;25.90;99.90
44215;DHT22;29884;47.450;19.124;2023-07-24T07:42:49;26.00;99.90
44215;DHT22;29884;47.450;19.124;2023-07-24T07:45:14;25.80;99.90
44215;DHT22;29884;47.450;19.124;2023-07-24T07:47:40;26.00;99.90
44215;DHT22;29884;47.450;19.124;2023-07-24T07:50:06;26.40;99.90
44215;DHT22;29884;47.450;19.124;2023-07-24T07:52:32;26.50;99.90
44215;DHT22;29884;47.450;19.124;2023-07-24T07:54:57;26.60;99.90
44215;DHT22;29884;47.450;19.124;2023-07-24T07:57:23;26.70;99.90
44215;DHT22;29884;47.450;19.124;2023-07-24T07:59:49;26.80;99.90
44215;DHT22;29884;47.450;19.124;2023-07-24T08:02:14;27.00;99.90
44215;DHT22;29884;47.450;19.124;2023-07-24T08:04:40;27.00;99.90
44215;DHT22;29884;47.450;19.124;2023-07-24T08:07:06;26.80;99.90
44215;DHT22;29884;47.450;19.124;2023-07-24T08:09:31;27.10;99.90
44215;DHT22;29884;47.450;19.124;2023-07-24T08:11:59;27.40;99.90
44215;DHT22;29884;47.450;19.124;2023-07-24T08:14:24;27.20;99.90
44215;DHT22;29884;47.450;19.124;2023-07-24T08:16:50;27.40;99.90
44215;DHT22;29884;47.450;19.124;2023-07-24T08:19:16;27.50;99.90
44215;DHT22;29884;47.450;19.124;2023-07-24T08:21:42;27.60;99.90
44215;DHT22;29884;47.450;19.124;2023-07-24T08:24:08;27.80;99.90
44215;DHT22;29884;47.450;19.124;2023-07-24T08:26:33;27.90;99.90
44215;DHT22;29884;47.450;19.124;2023-07-24T08:28:59;27.90;99.90
44215;DHT22;29884;47.450;19.124;2023-07-24T08:31:25;28.10;99.90
44215;DHT22;29884;47.450;19.124;2023-07-24T08:33:50;28.30;99.90
44215;DHT22;29884;47.450;19.124;2023-07-24T08:36:16;28.50;99.90
44215;DHT22;29884;47.450;19.124;2023-07-24T08:38:42;28.50;99.90
44215;DHT22;29884;47.450;19.124;2023-07-24T08:43:35;28.60;99.90
44215;DHT22;29884;47.450;19.124;2023-07-24T08:46:02;28.70;99.90
44215;DHT22;29884;47.450;19.124;2023-07-24T08:48:40;29.00;99.90
44215;DHT22;29884;47.450;19.124;2023-07-24T08:51:08;28.70;99.90
44215;DHT22;29884;47.450;19.124;2023-07-24T08:53:38;28.90;99.90
44215;DHT22;29884;47.450;19.124;2023-07-24T08:56:07;29.10;99.90
44215;DHT22;29884;47.450;19.124;2023-07-24T08:58:34;29.10;99.90
44215;DHT22;29884;47.450;19.124;2023-07-24T09:01:02;29.50;99.90
44215;DHT22;29884;47.450;19.124;2023-07-24T09:03:28;29.60;99.90
44215;DHT22;29884;47.450;19.124;2023-07-24T09:05:54;29.80;99.90
44215;DHT22;29884;47.450;19.124;2023-07-24T09:08:32;29.60;99.90
44215;DHT22;29884;47.450;19.124;2023-07-24T09:11:03;29.80;99.90
44215;DHT22;29884;47.450;19.124;2023-07-24T09:13:29;30.20;99.90
44215;DHT22;29884;47.450;19.124;2023-07-24T09:15:54;30.40;99.90
44215;DHT22;29884;47.450;19.124;2023-07-24T09:18:21;30.30;99.90
44215;DHT22;29884;47.450;19.124;2023-07-24T09:20:47;30.30;99.00
44215;DHT22;29884;47.450;19.124;2023-07-24T09:23:14;30.50;97.70
44215;DHT22;29884;47.450;19.124;2023-07-24T09:25:41;30.40;96.40
44215;DHT22;29884;47.450;19.124;2023-07-24T09:28:15;30.70;97.60
44215;DHT22;29884;47.450;19.124;2023-07-24T09:30:42;30.90;95.90
44215;DHT22;29884;47.450;19.124;2023-07-24T09:33:16;31.10;93.70
44215;DHT22;29884;47.450;19.124;2023-07-24T09:35:42;31.20;93.70
44215;DHT22;29884;47.450;19.124;2023-07-24T09:38:09;31.10;91.90
44215;DHT22;29884;47.450;19.124;2023-07-24T09:40:42;31.20;92.50
44215;DHT22;29884;47.450;19.124;2023-07-24T09:43:18;31.30;90.90
44215;DHT22;29884;47.450;19.124;2023-07-24T09:45:45;31.50;92.20
44215;DHT22;29884;47.450;19.124;2023-07-24T09:48:12;31.90;91.00
44215;DHT22;29884;47.450;19.124;2023-07-24T09:50:41;32.10;81.70
44215;DHT22;29884;47.450;19.124;2023-07-24T09:53:20;32.10;77.80
44215;DHT22;29884;47.450;19.124;2023-07-24T09:56:03;31.90;75.10
44215;DHT22;29884;47.450;19.124;2023-07-24T09:58:30;32.00;75.70
44215;DHT22;29884;47.450;19.124;2023-07-24T10:00:57;32.10;75.60
44215;DHT22;29884;47.450;19.124;2023-07-24T10:03:24;32.20;73.90
44215;DHT22;29884;47.450;19.124;2023-07-24T10:05:50;32.20;70.90
44215;DHT22;29884;47.450;19.124;2023-07-24T10:08:17;32.60;69.50
44215;DHT22;29884;47.450;19.124;2023-07-24T10:10:43;32.60;68.60
44215;DHT22;29884;47.450;19.124;2023-07-24T10:13:09;32.60;69.20
44215;DHT22;29884;47.450;19.124;2023-07-24T10:15:43;32.80;66.50
44215;DHT22;29884;47.450;19.124;2023-07-24T10:18:10;32.80;65.80
44215;DHT22;29884;47.450;19.124;2023-07-24T10:20:38;32.50;65.10
44215;DHT22;29884;47.450;19.124;2023-07-24T10:23:05;32.70;65.30
44215;DHT22;29884;47.450;19.124;2023-07-24T10:25:33;33.10;63.20
44215;DHT22;29884;47.450;19.124;2023-07-24T10:28:07;33.20;65.60
44215;DHT22;29884;47.450;19.124;2023-07-24T10:30:35;33.00;65.70
44215;DHT22;29884;47.450;19.124;2023-07-24T10:33:13;33.60;65.30
44215;DHT22;29884;47.450;19.124;2023-07-24T10:35:54;33.50;61.70
44215;DHT22;29884;47.450;19.124;2023-07-24T10:38:20;33.40;61.60
44215;DHT22;29884;47.450;19.124;2023-07-24T10:41:02;33.40;62.00
44215;DHT22;29884;47.450;19.124;2023-07-24T10:43:39;33.50;63.20
44215;DHT22;29884;47.450;19.124;2023-07-24T10:46:05;33.50;63.20
44215;DHT22;29884;47.450;19.124;2023-07-24T10:48:30;33.60;63.30
44215;DHT22;29884;47.450;19.124;2023-07-24T10:50:56;34.00;62.70
44215;DHT22;29884;47.450;19.124;2023-07-24T10:53:23;33.60;62.20
44215;DHT22;29884;47.450;19.124;2023-07-24T10:55:51;33.40;63.10
44215;DHT22;29884;47.450;19.124;2023-07-24T10:58:17;33.80;64.10
44215;DHT22;29884;47.450;19.124;2023-07-24T11:00:43;33.60;58.30
44215;DHT22;29884;47.450;19.124;2023-07-24T11:03:13;33.50;58.20
44215;DHT22;29884;47.450;19.124;2023-07-24T11:05:44;33.60;57.50
44215;DHT22;29884;47.450;19.124;2023-07-24T11:08:19;33.50;57.20
44215;DHT22;29884;47.450;19.124;2023-07-24T11:10:54;33.80;57.00
44215;DHT22;29884;47.450;19.124;2023-07-24T11:13:22;33.90;56.60
44215;DHT22;29884;47.450;19.124;2023-07-24T11:15:49;34.30;57.00
44215;DHT22;29884;47.450;19.124;2023-07-24T11:18:16;34.20;55.90
44215;DHT22;29884;47.450;19.124;2023-07-24T11:20:47;34.00;54.90
44215;DHT22;29884;47.450;19.124;2023-07-24T11:23:14;34.30;54.40
44215;DHT22;29884;47.450;19.124;2023-07-24T11:25:40;34.10;55.10
44215;DHT22;29884;47.450;19.124;2023-07-24T11:28:07;33.90;57.00
44215;DHT22;29884;47.450;19.124;2023-07-24T11:30:34;33.90;57.70
44215;DHT22;29884;47.450;19.124;2023-07-24T11:33:03;34.20;55.70
44215;DHT22;29884;47.450;19.124;2023-07-24T11:35:29;34.30;56.60
44215;DHT22;29884;47.450;19.124;2023-07-24T11:37:55;34.50;54.00
44215;DHT22;29884;47.450;19.124;2023-07-24T11:40:21;34.40;54.50
44215;DHT22;29884;47.450;19.124;2023-07-24T11:42:48;34.30;55.40
44215;DHT22;29884;47.450;19.124;2023-07-24T11:45:14;34.00;56.20
44215;DHT22;29884;47.450;19.124;2023-07-24T11:47:49;34.00;54.60
44215;DHT22;29884;47.450;19.124;2023-07-24T11:50:16;34.30;53.20
44215;DHT22;29884;47.450;19.124;2023-07-24T11:52:43;34.50;54.30
44215;DHT22;29884;47.450;19.124;2023-07-24T11:55:15;34.80;54.10
44215;DHT22;29884;47.450;19.124;2023-07-24T11:57:41;34.40;53.40
44215;DHT22;29884;47.450;19.124;2023-07-24T12:00:20;34.30;54.00
44215;DHT22;29884;47.450;19.124;2023-07-24T12:02:46;34.60;54.20
44215;DHT22;29884;47.450;19.124;2023-07-24T12:05:12;34.80;52.70
44215;DHT22;29884;47.450;19.124;2023-07-24T12:07:38;35.10;52.00
44215;DHT22;29884;47.450;19.124;2023-07-24T12:10:05;34.90;51.60
44215;DHT22;29884;47.450;19.124;2023-07-24T12:12:47;35.00;51.40
44215;DHT22;29884;47.450;19.124;2023-07-24T12:15:14;35.00;51.30
44215;DHT22;29884;47.450;19.124;2023-07-24T12:17:40;34.80;50.80
44215;DHT22;29884;47.450;19.124;2023-07-24T12:20:07;34.80;50.90
44215;DHT22;29884;47.450;19.124;2023-07-24T12:22:35;34.90;50.60
44215;DHT22;29884;47.450;19.124;2023-07-24T12:25:02;34.80;50.50
44215;DHT22;29884;47.450;19.124;2023-07-24T12:27:28;35.00;50.30
44215;DHT22;29884;47.450;19.124;2023-07-24T12:29:54;34.90;49.80
44215;DHT22;29884;47.450;19.124;2023-07-24T12:32:20;35.00;50.70
44215;DHT22;29884;47.450;19.124;2023-07-24T12:34:50;35.20;49.30
44215;DHT22;29884;47.450;19.124;2023-07-24T12:37:17;34.40;50.70
44215;DHT22;29884;47.450;19.124;2023-07-24T12:39:46;34.40;52.40
44215;DHT22;29884;47.450;19.124;2023-07-24T12:42:13;34.70;52.20
44215;DHT22;29884;47.450;19.124;2023-07-24T12:44:39;34.90;51.60
44215;DHT22;29884;47.450;19.124;2023-07-24T12:47:05;34.70;52.30
44215;DHT22;29884;47.450;19.124;2023-07-24T12:49:31;34.80;51.70
44215;DHT22;29884;47.450;19.124;2023-07-24T12:51:57;34.80;53.00
44215;DHT22;29884;47.450;19.124;2023-07-24T12:54:23;34.80;52.00
44215;DHT22;29884;47.450;19.124;2023-07-24T12:56:49;34.80;52.70
44215;DHT22;29884;47.450;19.124;2023-07-24T12:59:17;34.90;53.10
44215;DHT22;29884;47.450;19.124;2023-07-24T13:01:44;34.90;53.30
44215;DHT22;29884;47.450;19.124;2023-07-24T13:04:10;35.00;53.70
44215;DHT22;29884;47.450;19.124;2023-07-24T13:06:36;35.10;52.20
44215;DHT22;29884;47.450;19.124;2023-07-24T13:09:02;34.70;52.40
44215;DHT22;29884;47.450;19.124;2023-07-24T13:11:28;34.80;52.50
44215;DHT22;29884;47.450;19.124;2023-07-24T13:13:54;35.00;52.30
44215;DHT22;29884;47.450;19.124;2023-07-24T13:16:20;34.70;52.80
44215;DHT22;29884;47.450;19.124;2023-07-24T13:18:46;34.70;53.30
44215;DHT22;29884;47.450;19.124;2023-07-24T13:21:12;34.70;54.00
44215;DHT22;29884;47.450;19.124;2023-07-24T13:23:39;34.70;53.50
44215;DHT22;29884;47.450;19.124;2023-07-24T13:26:05;34.60;53.10
44215;DHT22;29884;47.450;19.124;2023-07-24T13:28:33;34.60;54.00
44215;DHT22;29884;47.450;19.124;2023-07-24T13:30:58;34.60;52.90
44215;DHT22;29884;47.450;19.124;2023-07-24T13:33:24;34.70;53.30
44215;DHT22;29884;47.450;19.124;2023-07-24T13:35:50;34.70;52.10
44215;DHT22;29884;47.450;19.124;2023-07-24T13:38:16;34.70;50.50
44215;DHT22;29884;47.450;19.124;2023-07-24T13:40:42;34.70;51.40
44215;DHT22;29884;47.450;19.124;2023-07-24T13:43:08;34.50;49.40
44215;DHT22;29884;47.450;19.124;2023-07-24T13:45:34;34.60;49.60
44215;DHT22;29884;47.450;19.124;2023-07-24T13:47:59;34.60;51.00
44215;DHT22;29884;47.450;19.124;2023-07-24T13:50:25;34.70;52.10
44215;DHT22;29884;47.450;19.124;2023-07-24T13:52:51;34.70;51.40
44215;DHT22;29884;47.450;19.124;2023-07-24T13:55:16;34.60;52.00
44215;DHT22;29884;47.450;19.124;2023-07-24T13:57:42;34.60;52.60
44215;DHT22;29884;47.450;19.124;2023-07-24T14:00:08;34.80;52.10
44215;DHT22;29884;47.450;19.124;2023-07-24T14:02:34;35.00;52.50
44215;DHT22;29884;47.450;19.124;2023-07-24T14:05:00;34.90;52.20
44215;DHT22;29884;47.450;19.124;2023-07-24T14:07:25;34.90;52.20
44215;DHT22;29884;47.450;19.124;2023-07-24T14:09:51;34.60;48.90
44215;DHT22;29884;47.450;19.124;2023-07-24T14:12:17;34.10;50.00
44215;DHT22;29884;47.450;19.124;2023-07-24T14:14:43;33.80;50.40
44215;DHT22;29884;47.450;19.124;2023-07-24T14:17:08;33.60;51.10
44215;DHT22;29884;47.450;19.124;2023-07-24T14:19:34;33.30;51.60
44215;DHT22;29884;47.450;19.124;2023-07-24T14:22:00;33.20;51.90
44215;DHT22;29884;47.450;19.124;2023-07-24T14:24:27;33.20;51.60
44215;DHT22;29884;47.450;19.124;2023-07-24T14:26:52;33.20;51.70
44215;DHT22;29884;47.450;19.124;2023-07-24T14:29:18;33.10;52.60
44215;DHT22;29884;47.450;19.124;2023-07-24T14:31:44;33.50;50.80
44215;DHT22;29884;47.450;19.124;2023-07-24T14:34:10;33.80;50.50
44215;DHT22;29884;47.450;19.124;2023-07-24T14:36:38;33.80;49.10
44215;DHT22;29884;47.450;19.124;2023-07-24T14:39:04;33.60;49.50
44215;DHT22;29884;47.450;19.124;2023-07-24T14:41:30;33.40;47.00
44215;DHT22;29884;47.450;19.124;2023-07-24T14:43:56;33.30;48.00
44215;DHT22;29884;47.450;19.124;2023-07-24T14:46:22;33.30;49.10
44215;DHT22;29884;47.450;19.124;2023-07-24T14:48:47;33.30;48.60
44215;DHT22;29884;47.450;19.124;2023-07-24T14:51:13;33.20;48.40
44215;DHT22;29884;47.450;19.124;2023-07-24T14:53:39;33.20;47.30
44215;DHT22;29884;47.450;19.124;2023-07-24T14:56:04;33.20;47.00
44215;DHT22;29884;47.450;19.124;2023-07-24T14:58:30;33.30;47.50
44215;DHT22;29884;47.450;19.124;2023-07-24T15:00:56;33.10;48.40
44215;DHT22;29884;47.450;19.124;2023-07-24T15:03:22;33.00;48.90
44215;DHT22;29884;47.450;19.124;2023-07-24T15:05:48;33.00;48.80
44215;DHT22;29884;47.450;19.124;2023-07-24T15:08:14;33.00;48.50
44215;DHT22;29884;47.450;19.124;2023-07-24T15:10:40;33.00;48.70
44215;DHT22;29884;47.450;19.124;2023-07-24T15:13:06;33.00;48.70
44215;DHT22;29884;47.450;19.124;2023-07-24T15:15:32;33.20;49.20
44215;DHT22;29884;47.450;19.124;2023-07-24T15:17:59;33.10;49.30
44215;DHT22;29884;47.450;19.124;2023-07-24T15:20:24;33.00;49.60